Pacific Hope — 3FLH6 — position and weather

sailwx.info

Track history (hours):
 
Tides and Currents Weather Stations Pressure Air Temp Water Temp Dewpoint Dewpoint Depression Visibility Wind Speed Wind Dir Waves Ship Positions

Pacific Hope

Last reported at 2018-Jan-05 12:38 UTC. Time now 2018-Jan-23 00:07 UTC.
Position N 01°15' E 104°04'.
Warning: this ship's position is 17 days out of date.

Length 169 m; draft 9.5 m.

Type: Cargo ship. MMSI: 351849000.

Date/timePositionNaut miles runAvg speedWind from/ knotsBaromVisibWave heightAir tempDewpointWater temp
2018-Jan-05 12:38N 01°15' E 104°04'212.8
2018-Jan-05 12:29N 01°14' E 104°02'613.2
2018-Jan-05 12:00N 01°13' E 103°56'714.0
2018-Jan-05 11:30N 01°10' E 103°50'714.4
2018-Jan-05 11:01N 01°06' E 103°44'612.3
2018-Jan-05 10:30N 01°03' E 103°38'611.2
2018-Jan-05 10:00N 01°06' E 103°33'611.0
2018-Jan-05 09:30N 01°09' E 103°28'611.1
2018-Jan-05 08:59N 01°12' E 103°24'  
Track history (hours):
 
Tides and Currents Weather Stations Pressure Air Temp Water Temp Dewpoint Dewpoint Depression Visibility Wind Speed Wind Dir Waves Ship Positions

Pacific Hope

Last reported at 2018-Jan-05 12:38 UTC. Time now 2018-Jan-23 00:07 UTC.
Position N 01°15' E 104°04'.
Warning: this ship's position is 17 days out of date.

Length 169 m; draft 9.5 m.

Type: Cargo ship. MMSI: 351849000.

Date/timePositionNaut miles runAvg speedWind from/ knotsBaromVisibWave heightAir tempDewpointWater temp
2018-Jan-05 12:38N 01°15' E 104°04'212.8
2018-Jan-05 12:29N 01°14' E 104°02'613.2
2018-Jan-05 12:00N 01°13' E 103°56'714.0
2018-Jan-05 11:30N 01°10' E 103°50'714.4
2018-Jan-05 11:01N 01°06' E 103°44'612.3
2018-Jan-05 10:30N 01°03' E 103°38'611.2
2018-Jan-05 10:00N 01°06' E 103°33'611.0
2018-Jan-05 09:30N 01°09' E 103°28'611.1
2018-Jan-05 08:59N 01°12' E 103°24'  

Dump ship's entire track history